Ginga — JJ4054 — position and weather

sailwx.info

Track history (hours):
 
Tides and Currents Weather Stations Pressure Air Temp Water Temp Dewpoint Dewpoint Depression Visibility Wind Speed Wind Dir Waves Ship Positions

Ginga

Last reported at 2016-Dec-04 05:31 UTC. Time now 2016-Dec-04 06:05 UTC.
Position N 34°36' E 135°01'.

Length 28 m; draft 1.6 m.

Type: Other ship. MMSI: 431301704.

Date/timePositionNaut miles runAvg speedWind from/ knotsBaromVisibWave heightAir tempDewpointWater temp
2016-Dec-04 05:31N 34°36' E 135°01'3 2.4
2016-Dec-04 04:11N 34°38' E 134°58'4 6.4
2016-Dec-04 03:31N 34°38' E 135°03'0 0.0
2016-Dec-03 22:17N 34°38' E 135°03'1 1.9
2016-Dec-03 21:33N 34°37' E 135°02'7 6.8
2016-Dec-03 20:34N 34°38' E 135°10'1 0.1
2016-Dec-03 06:07N 34°39' E 135°09'813.8
2016-Dec-03 05:33N 34°31' E 135°07'5 2.3
2016-Dec-03 03:33N 34°27' E 135°06'1312.9
2016-Dec-03 02:31N 34°33' E 135°21'4 3.9
2016-Dec-03 01:33N 34°33' E 135°25'2 0.1
2016-Dec-02 02:33N 34°31' E 135°24'11 5.4
2016-Dec-02 00:33N 34°29' E 135°11'8 2.7
2016-Dec-01 21:32N 34°26' E 135°02'1515.0
2016-Dec-01 20:34N 34°39' E 135°10'2 0.1
2016-Nov-30 10:33N 34°37' E 135°09'12 6.1
2016-Nov-30 08:31N 34°26' E 135°02'10 9.9
2016-Nov-30 07:33N 34°35' E 135°03'4 4.1
2016-Nov-30 06:32N 34°38' E 134°59'8 0.4
2016-Nov-29 09:27N 34°39' E 135°09'16 7.5
2016-Nov-29 07:20N 34°25' E 135°02'1012.4
2016-Nov-29 06:32N 34°34' E 135°06'9 0.3
2016-Nov-28 03:29N 34°36' E 134°56'9 9.6
2016-Nov-28 02:33N 34°34' E 135°07'7 7.3
2016-Nov-28 01:33N 34°27' E 135°06'7 1.5
2016-Nov-27 20:25N 34°25' E 134°57'1213.5
2016-Nov-27 19:31N 34°37' E 134°58'8 8.3
2016-Nov-27 18:33N 34°35' E 135°07'5 4.8
2016-Nov-27 17:33N 34°39' E 135°09'5 0.4
2016-Nov-27 05:33N 34°36' E 135°06'6 6.0
2016-Nov-27 04:32N 34°38' E 134°59'4 1.2
2016-Nov-27 01:33N 34°38' E 135°03'1 1.5
2016-Nov-27 00:33N 34°36' E 135°03'2 0.3
2016-Nov-26 19:33N 34°37' E 135°03'3 2.6
2016-Nov-26 18:33N 34°35' E 135°05'5 5.4
2016-Nov-26 17:33N 34°39' E 135°09'0 0.0
2016-Nov-25 10:25N 34°39' E 135°09'6 2.1
2016-Nov-25 07:33N 34°35' E 135°04'4 4.2
2016-Nov-25 06:33N 34°37' E 134°59'  
Track history (hours):
 
Tides and Currents Weather Stations Pressure Air Temp Water Temp Dewpoint Dewpoint Depression Visibility Wind Speed Wind Dir Waves Ship Positions

Ginga

Last reported at 2016-Dec-04 05:31 UTC. Time now 2016-Dec-04 06:05 UTC.
Position N 34°36' E 135°01'.

Length 28 m; draft 1.6 m.

Type: Other ship. MMSI: 431301704.

Date/timePositionNaut miles runAvg speedWind from/ knotsBaromVisibWave heightAir tempDewpointWater temp
2016-Dec-04 05:31N 34°36' E 135°01'3 2.4
2016-Dec-04 04:11N 34°38' E 134°58'4 6.4
2016-Dec-04 03:31N 34°38' E 135°03'0 0.0
2016-Dec-03 22:17N 34°38' E 135°03'1 1.9
2016-Dec-03 21:33N 34°37' E 135°02'7 6.8
2016-Dec-03 20:34N 34°38' E 135°10'1 0.1
2016-Dec-03 06:07N 34°39' E 135°09'813.8
2016-Dec-03 05:33N 34°31' E 135°07'5 2.3
2016-Dec-03 03:33N 34°27' E 135°06'1312.9
2016-Dec-03 02:31N 34°33' E 135°21'4 3.9
2016-Dec-03 01:33N 34°33' E 135°25'2 0.1
2016-Dec-02 02:33N 34°31' E 135°24'11 5.4
2016-Dec-02 00:33N 34°29' E 135°11'8 2.7
2016-Dec-01 21:32N 34°26' E 135°02'1515.0
2016-Dec-01 20:34N 34°39' E 135°10'2 0.1
2016-Nov-30 10:33N 34°37' E 135°09'12 6.1
2016-Nov-30 08:31N 34°26' E 135°02'10 9.9
2016-Nov-30 07:33N 34°35' E 135°03'4 4.1
2016-Nov-30 06:32N 34°38' E 134°59'8 0.4
2016-Nov-29 09:27N 34°39' E 135°09'16 7.5
2016-Nov-29 07:20N 34°25' E 135°02'1012.4
2016-Nov-29 06:32N 34°34' E 135°06'9 0.3
2016-Nov-28 03:29N 34°36' E 134°56'9 9.6
2016-Nov-28 02:33N 34°34' E 135°07'7 7.3
2016-Nov-28 01:33N 34°27' E 135°06'7 1.5
2016-Nov-27 20:25N 34°25' E 134°57'1213.5
2016-Nov-27 19:31N 34°37' E 134°58'8 8.3
2016-Nov-27 18:33N 34°35' E 135°07'5 4.8
2016-Nov-27 17:33N 34°39' E 135°09'5 0.4
2016-Nov-27 05:33N 34°36' E 135°06'6 6.0
2016-Nov-27 04:32N 34°38' E 134°59'4 1.2
2016-Nov-27 01:33N 34°38' E 135°03'1 1.5
2016-Nov-27 00:33N 34°36' E 135°03'2 0.3
2016-Nov-26 19:33N 34°37' E 135°03'3 2.6
2016-Nov-26 18:33N 34°35' E 135°05'5 5.4
2016-Nov-26 17:33N 34°39' E 135°09'0 0.0
2016-Nov-25 10:25N 34°39' E 135°09'6 2.1
2016-Nov-25 07:33N 34°35' E 135°04'4 4.2
2016-Nov-25 06:33N 34°37' E 134°59'  

Dump ship's entire track history